sensor_id;sensor_type;location;lat;lon;timestamp;temperature;humidity
3921;DHT22;1975;49.356;6.816;2022-09-09T00:01:53;18.10;99.90
3921;DHT22;1975;49.356;6.816;2022-09-09T00:04:34;18.10;99.90
3921;DHT22;1975;49.356;6.816;2022-09-09T00:09:26;18.20;99.90
3921;DHT22;1975;49.356;6.816;2022-09-09T00:12:02;18.20;99.90
3921;DHT22;1975;49.356;6.816;2022-09-09T00:17:02;18.10;99.90
3921;DHT22;1975;49.356;6.816;2022-09-09T00:19:33;18.10;99.90
3921;DHT22;1975;49.356;6.816;2022-09-09T00:27:08;18.10;99.90
3921;DHT22;1975;49.356;6.816;2022-09-09T00:29:41;18.10;99.90
3921;DHT22;1975;49.356;6.816;2022-09-09T00:32:12;18.10;99.90
3921;DHT22;1975;49.356;6.816;2022-09-09T00:34:39;18.10;99.90
3921;DHT22;1975;49.356;6.816;2022-09-09T00:37:07;18.10;99.90
3921;DHT22;1975;49.356;6.816;2022-09-09T00:39:44;18.10;99.90
3921;DHT22;1975;49.356;6.816;2022-09-09T00:44:41;18.00;99.90
3921;DHT22;1975;49.356;6.816;2022-09-09T00:47:35;18.00;99.90
3921;DHT22;1975;49.356;6.816;2022-09-09T00:52:37;17.90;99.90
3921;DHT22;1975;49.356;6.816;2022-09-09T00:55:07;17.90;99.90
3921;DHT22;1975;49.356;6.816;2022-09-09T00:57:38;17.90;99.90
3921;DHT22;1975;49.356;6.816;2022-09-09T01:00:17;18.00;99.90
3921;DHT22;1975;49.356;6.816;2022-09-09T01:02:52;17.90;99.90
3921;DHT22;1975;49.356;6.816;2022-09-09T01:05:21;17.90;99.90
3921;DHT22;1975;49.356;6.816;2022-09-09T01:07:48;17.90;99.90
3921;DHT22;1975;49.356;6.816;2022-09-09T01:10:21;18.00;99.90
3921;DHT22;1975;49.356;6.816;2022-09-09T01:12:51;17.90;99.90
3921;DHT22;1975;49.356;6.816;2022-09-09T01:15:20;18.00;99.90
3921;DHT22;1975;49.356;6.816;2022-09-09T01:18:02;18.00;99.90
3921;DHT22;1975;49.356;6.816;2022-09-09T01:25:56;18.00;99.90
3921;DHT22;1975;49.356;6.816;2022-09-09T01:28:22;18.00;99.90
3921;DHT22;1975;49.356;6.816;2022-09-09T01:30:50;18.00;99.90
3921;DHT22;1975;49.356;6.816;2022-09-09T01:33:15;18.00;99.90
3921;DHT22;1975;49.356;6.816;2022-09-09T01:38:09;18.00;99.90
3921;DHT22;1975;49.356;6.816;2022-09-09T01:40:35;18.00;99.90
3921;DHT22;1975;49.356;6.816;2022-09-09T01:43:01;18.00;99.90
3921;DHT22;1975;49.356;6.816;2022-09-09T01:45:26;17.90;99.90
3921;DHT22;1975;49.356;6.816;2022-09-09T01:47:52;17.90;99.90
3921;DHT22;1975;49.356;6.816;2022-09-09T01:50:18;17.90;99.90
3921;DHT22;1975;49.356;6.816;2022-09-09T01:52:44;18.00;99.90
3921;DHT22;1975;49.356;6.816;2022-09-09T01:55:11;18.00;99.90
3921;DHT22;1975;49.356;6.816;2022-09-09T01:57:46;18.00;99.90
3921;DHT22;1975;49.356;6.816;2022-09-09T02:00:15;18.00;99.90
3921;DHT22;1975;49.356;6.816;2022-09-09T02:07:52;17.90;99.90
3921;DHT22;1975;49.356;6.816;2022-09-09T02:13:12;17.90;99.90
3921;DHT22;1975;49.356;6.816;2022-09-09T02:15:47;17.90;99.90
3921;DHT22;1975;49.356;6.816;2022-09-09T02:18:14;17.80;99.90
3921;DHT22;1975;49.356;6.816;2022-09-09T02:20:40;17.90;99.90
3921;DHT22;1975;49.356;6.816;2022-09-09T02:23:07;17.80;99.90
3921;DHT22;1975;49.356;6.816;2022-09-09T02:25:34;17.70;99.90
3921;DHT22;1975;49.356;6.816;2022-09-09T02:28:00;17.60;99.90
3921;DHT22;1975;49.356;6.816;2022-09-09T02:30:28;17.60;99.90
3921;DHT22;1975;49.356;6.816;2022-09-09T02:32:55;17.60;99.90
3921;DHT22;1975;49.356;6.816;2022-09-09T02:35:22;17.70;99.90
3921;DHT22;1975;49.356;6.816;2022-09-09T02:37:50;17.70;99.90
3921;DHT22;1975;49.356;6.816;2022-09-09T02:40:16;17.70;99.90
3921;DHT22;1975;49.356;6.816;2022-09-09T02:42:43;17.70;99.90
3921;DHT22;1975;49.356;6.816;2022-09-09T02:45:09;17.80;99.90
3921;DHT22;1975;49.356;6.816;2022-09-09T02:47:41;17.80;99.90
3921;DHT22;1975;49.356;6.816;2022-09-09T02:50:13;17.80;99.90
3921;DHT22;1975;49.356;6.816;2022-09-09T02:55:41;17.80;99.90
3921;DHT22;1975;49.356;6.816;2022-09-09T02:58:10;17.70;99.90
3921;DHT22;1975;49.356;6.816;2022-09-09T03:00:37;17.70;99.90
3921;DHT22;1975;49.356;6.816;2022-09-09T03:03:04;17.70;99.90
3921;DHT22;1975;49.356;6.816;2022-09-09T03:05:29;17.80;99.90
3921;DHT22;1975;49.356;6.816;2022-09-09T03:07:55;17.70;99.90
3921;DHT22;1975;49.356;6.816;2022-09-09T03:10:20;17.70;99.90
3921;DHT22;1975;49.356;6.816;2022-09-09T03:12:46;17.70;99.90
3921;DHT22;1975;49.356;6.816;2022-09-09T03:15:11;17.70;99.90
3921;DHT22;1975;49.356;6.816;2022-09-09T03:17:37;17.60;99.90
3921;DHT22;1975;49.356;6.816;2022-09-09T03:20:05;17.60;99.90
3921;DHT22;1975;49.356;6.816;2022-09-09T03:22:31;17.60;99.90
3921;DHT22;1975;49.356;6.816;2022-09-09T03:24:56;17.60;99.90
3921;DHT22;1975;49.356;6.816;2022-09-09T03:27:22;17.60;99.90
3921;DHT22;1975;49.356;6.816;2022-09-09T03:29:47;17.60;99.90
3921;DHT22;1975;49.356;6.816;2022-09-09T03:32:16;17.60;99.90
3921;DHT22;1975;49.356;6.816;2022-09-09T03:34:42;17.60;99.90
3921;DHT22;1975;49.356;6.816;2022-09-09T03:37:08;17.60;99.90
3921;DHT22;1975;49.356;6.816;2022-09-09T03:39:33;17.50;99.90
3921;DHT22;1975;49.356;6.816;2022-09-09T03:41:59;17.40;99.90
3921;DHT22;1975;49.356;6.816;2022-09-09T03:44:24;17.50;99.90
3921;DHT22;1975;49.356;6.816;2022-09-09T03:46:49;17.50;99.90
3921;DHT22;1975;49.356;6.816;2022-09-09T03:49:15;17.50;99.90
3921;DHT22;1975;49.356;6.816;2022-09-09T03:51:42;17.40;99.90
3921;DHT22;1975;49.356;6.816;2022-09-09T03:54:07;17.30;99.90
3921;DHT22;1975;49.356;6.816;2022-09-09T03:56:35;17.30;99.90
3921;DHT22;1975;49.356;6.816;2022-09-09T03:59:01;17.40;99.90
3921;DHT22;1975;49.356;6.816;2022-09-09T04:01:27;17.40;99.90
3921;DHT22;1975;49.356;6.816;2022-09-09T04:03:52;17.40;99.90
3921;DHT22;1975;49.356;6.816;2022-09-09T04:06:18;17.40;99.90
3921;DHT22;1975;49.356;6.816;2022-09-09T04:08:43;17.40;99.90
3921;DHT22;1975;49.356;6.816;2022-09-09T04:11:10;17.40;99.90
3921;DHT22;1975;49.356;6.816;2022-09-09T04:13:36;17.40;99.90
3921;DHT22;1975;49.356;6.816;2022-09-09T04:16:03;17.30;99.90
3921;DHT22;1975;49.356;6.816;2022-09-09T04:18:29;17.30;99.90
3921;DHT22;1975;49.356;6.816;2022-09-09T04:20:55;17.40;99.90
3921;DHT22;1975;49.356;6.816;2022-09-09T04:23:22;17.30;99.90
3921;DHT22;1975;49.356;6.816;2022-09-09T04:25:50;17.30;99.90
3921;DHT22;1975;49.356;6.816;2022-09-09T04:28:16;17.30;99.90
3921;DHT22;1975;49.356;6.816;2022-09-09T04:30:42;17.30;99.90
3921;DHT22;1975;49.356;6.816;2022-09-09T04:33:08;17.30;99.90
3921;DHT22;1975;49.356;6.816;2022-09-09T04:35:35;17.30;99.90
3921;DHT22;1975;49.356;6.816;2022-09-09T04:38:01;17.30;99.90
3921;DHT22;1975;49.356;6.816;2022-09-09T04:40:28;17.20;99.90
3921;DHT22;1975;49.356;6.816;2022-09-09T04:42:55;17.20;99.90
3921;DHT22;1975;49.356;6.816;2022-09-09T04:45:20;17.30;99.90
3921;DHT22;1975;49.356;6.816;2022-09-09T04:47:46;17.30;99.90
3921;DHT22;1975;49.356;6.816;2022-09-09T04:50:11;17.30;99.90
3921;DHT22;1975;49.356;6.816;2022-09-09T04:52:37;17.30;99.90
3921;DHT22;1975;49.356;6.816;2022-09-09T04:55:03;17.30;99.90
3921;DHT22;1975;49.356;6.816;2022-09-09T04:57:28;17.30;99.90
3921;DHT22;1975;49.356;6.816;2022-09-09T04:59:54;17.30;99.90
3921;DHT22;1975;49.356;6.816;2022-09-09T05:02:19;17.40;99.90
3921;DHT22;1975;49.356;6.816;2022-09-09T05:04:45;17.40;99.90
3921;DHT22;1975;49.356;6.816;2022-09-09T05:07:10;17.30;99.90
3921;DHT22;1975;49.356;6.816;2022-09-09T05:09:36;17.30;99.90
3921;DHT22;1975;49.356;6.816;2022-09-09T05:12:02;17.30;99.90
3921;DHT22;1975;49.356;6.816;2022-09-09T05:14:28;17.30;99.90
3921;DHT22;1975;49.356;6.816;2022-09-09T05:16:54;17.30;99.90
3921;DHT22;1975;49.356;6.816;2022-09-09T05:19:21;17.30;99.90
3921;DHT22;1975;49.356;6.816;2022-09-09T05:21:46;17.20;99.90
3921;DHT22;1975;49.356;6.816;2022-09-09T05:24:12;17.20;99.90
3921;DHT22;1975;49.356;6.816;2022-09-09T05:26:37;17.10;99.90
3921;DHT22;1975;49.356;6.816;2022-09-09T05:29:03;17.00;99.90
3921;DHT22;1975;49.356;6.816;2022-09-09T05:31:29;17.10;99.90
3921;DHT22;1975;49.356;6.816;2022-09-09T05:33:55;17.10;99.90
3921;DHT22;1975;49.356;6.816;2022-09-09T05:36:21;17.20;99.90
3921;DHT22;1975;49.356;6.816;2022-09-09T05:38:47;17.20;99.90
3921;DHT22;1975;49.356;6.816;2022-09-09T05:41:13;17.10;99.90
3921;DHT22;1975;49.356;6.816;2022-09-09T05:43:41;17.00;99.90
3921;DHT22;1975;49.356;6.816;2022-09-09T05:46:12;17.00;99.90
3921;DHT22;1975;49.356;6.816;2022-09-09T05:48:41;17.00;99.90
3921;DHT22;1975;49.356;6.816;2022-09-09T05:51:10;17.00;99.90
3921;DHT22;1975;49.356;6.816;2022-09-09T05:53:37;17.00;99.90
3921;DHT22;1975;49.356;6.816;2022-09-09T05:56:04;17.00;99.90
3921;DHT22;1975;49.356;6.816;2022-09-09T05:58:31;17.10;99.90
3921;DHT22;1975;49.356;6.816;2022-09-09T06:01:06;17.20;99.90
3921;DHT22;1975;49.356;6.816;2022-09-09T06:03:34;17.20;99.90
3921;DHT22;1975;49.356;6.816;2022-09-09T06:05:59;17.20;99.90
3921;DHT22;1975;49.356;6.816;2022-09-09T06:08:26;17.20;99.90
3921;DHT22;1975;49.356;6.816;2022-09-09T06:10:51;17.20;99.90
3921;DHT22;1975;49.356;6.816;2022-09-09T06:13:17;17.30;99.90
3921;DHT22;1975;49.356;6.816;2022-09-09T06:15:50;17.30;99.90
3921;DHT22;1975;49.356;6.816;2022-09-09T06:18:16;17.30;99.90
3921;DHT22;1975;49.356;6.816;2022-09-09T06:20:43;17.30;99.90
3921;DHT22;1975;49.356;6.816;2022-09-09T06:23:08;17.30;99.90
3921;DHT22;1975;49.356;6.816;2022-09-09T06:25:34;17.30;99.90
3921;DHT22;1975;49.356;6.816;2022-09-09T06:27:59;17.40;99.90
3921;DHT22;1975;49.356;6.816;2022-09-09T06:30:25;17.30;99.90
3921;DHT22;1975;49.356;6.816;2022-09-09T06:32:51;17.40;99.90
3921;DHT22;1975;49.356;6.816;2022-09-09T06:35:16;17.40;99.90
3921;DHT22;1975;49.356;6.816;2022-09-09T06:37:44;17.40;99.90
3921;DHT22;1975;49.356;6.816;2022-09-09T06:40:10;17.40;99.90
3921;DHT22;1975;49.356;6.816;2022-09-09T06:42:36;17.30;99.90
3921;DHT22;1975;49.356;6.816;2022-09-09T06:45:01;17.30;99.90
3921;DHT22;1975;49.356;6.816;2022-09-09T06:47:27;17.30;99.90
3921;DHT22;1975;49.356;6.816;2022-09-09T06:49:53;17.30;99.90
3921;DHT22;1975;49.356;6.816;2022-09-09T06:52:21;17.30;99.90
3921;DHT22;1975;49.356;6.816;2022-09-09T06:54:47;17.30;99.90
3921;DHT22;1975;49.356;6.816;2022-09-09T06:57:12;17.30;99.90
3921;DHT22;1975;49.356;6.816;2022-09-09T06:59:38;17.30;99.90
3921;DHT22;1975;49.356;6.816;2022-09-09T07:02:03;17.20;99.90
3921;DHT22;1975;49.356;6.816;2022-09-09T07:04:29;17.20;99.90
3921;DHT22;1975;49.356;6.816;2022-09-09T07:06:54;17.20;99.90
3921;DHT22;1975;49.356;6.816;2022-09-09T07:09:20;17.20;99.90
3921;DHT22;1975;49.356;6.816;2022-09-09T07:11:47;17.10;99.90
3921;DHT22;1975;49.356;6.816;2022-09-09T07:14:12;17.00;99.90
3921;DHT22;1975;49.356;6.816;2022-09-09T07:16:42;17.10;99.90
3921;DHT22;1975;49.356;6.816;2022-09-09T07:19:08;17.10;99.90
3921;DHT22;1975;49.356;6.816;2022-09-09T07:21:33;17.20;99.90
3921;DHT22;1975;49.356;6.816;2022-09-09T07:23:59;17.20;99.90
3921;DHT22;1975;49.356;6.816;2022-09-09T07:26:26;17.10;99.90
3921;DHT22;1975;49.356;6.816;2022-09-09T07:28:52;17.10;99.90
3921;DHT22;1975;49.356;6.816;2022-09-09T07:31:19;17.20;99.90
3921;DHT22;1975;49.356;6.816;2022-09-09T07:33:45;17.10;99.90
3921;DHT22;1975;49.356;6.816;2022-09-09T07:36:15;17.10;99.90
3921;DHT22;1975;49.356;6.816;2022-09-09T07:38:42;17.10;99.90
3921;DHT22;1975;49.356;6.816;2022-09-09T07:41:09;17.20;99.90
3921;DHT22;1975;49.356;6.816;2022-09-09T07:43:38;17.20;99.90
3921;DHT22;1975;49.356;6.816;2022-09-09T07:46:04;17.20;99.90
3921;DHT22;1975;49.356;6.816;2022-09-09T07:48:30;17.20;99.90
3921;DHT22;1975;49.356;6.816;2022-09-09T07:51:15;17.10;99.90
3921;DHT22;1975;49.356;6.816;2022-09-09T07:53:43;17.00;99.90
3921;DHT22;1975;49.356;6.816;2022-09-09T07:56:09;16.90;99.90
3921;DHT22;1975;49.356;6.816;2022-09-09T07:58:35;16.90;99.90
3921;DHT22;1975;49.356;6.816;2022-09-09T08:01:06;17.00;99.90
3921;DHT22;1975;49.356;6.816;2022-09-09T08:03:32;17.10;99.90
3921;DHT22;1975;49.356;6.816;2022-09-09T08:06:00;17.10;99.90
3921;DHT22;1975;49.356;6.816;2022-09-09T08:08:26;17.10;99.90
3921;DHT22;1975;49.356;6.816;2022-09-09T08:10:52;17.10;99.90
3921;DHT22;1975;49.356;6.816;2022-09-09T08:13:18;17.00;99.90
3921;DHT22;1975;49.356;6.816;2022-09-09T08:15:43;17.00;99.90
3921;DHT22;1975;49.356;6.816;2022-09-09T08:18:09;17.00;99.90
3921;DHT22;1975;49.356;6.816;2022-09-09T08:20:35;17.00;99.90
3921;DHT22;1975;49.356;6.816;2022-09-09T08:23:01;17.00;99.90
3921;DHT22;1975;49.356;6.816;2022-09-09T08:25:26;17.10;99.90
3921;DHT22;1975;49.356;6.816;2022-09-09T08:27:52;17.10;99.90
3921;DHT22;1975;49.356;6.816;2022-09-09T08:30:18;17.20;99.90
3921;DHT22;1975;49.356;6.816;2022-09-09T08:32:43;17.10;99.90
3921;DHT22;1975;49.356;6.816;2022-09-09T08:35:09;17.20;99.90
3921;DHT22;1975;49.356;6.816;2022-09-09T08:37:34;17.20;99.90
3921;DHT22;1975;49.356;6.816;2022-09-09T08:39:59;17.20;99.90
3921;DHT22;1975;49.356;6.816;2022-09-09T08:42:34;17.20;99.90
3921;DHT22;1975;49.356;6.816;2022-09-09T08:45:04;17.30;99.90
3921;DHT22;1975;49.356;6.816;2022-09-09T08:47:34;17.30;99.90
3921;DHT22;1975;49.356;6.816;2022-09-09T08:50:17;17.30;99.90
3921;DHT22;1975;49.356;6.816;2022-09-09T09:00:55;17.50;99.90
3921;DHT22;1975;49.356;6.816;2022-09-09T09:03:30;17.50;99.90
3921;DHT22;1975;49.356;6.816;2022-09-09T09:08:40;17.60;99.90
3921;DHT22;1975;49.356;6.816;2022-09-09T09:11:09;17.70;99.90
3921;DHT22;1975;49.356;6.816;2022-09-09T09:13:56;17.60;99.90
3921;DHT22;1975;49.356;6.816;2022-09-09T09:18:46;17.60;99.90
3921;DHT22;1975;49.356;6.816;2022-09-09T09:21:13;17.60;99.90
3921;DHT22;1975;49.356;6.816;2022-09-09T09:23:57;17.60;99.90
3921;DHT22;1975;49.356;6.816;2022-09-09T09:26:30;17.60;99.90
3921;DHT22;1975;49.356;6.816;2022-09-09T09:28:56;17.60;99.90
3921;DHT22;1975;49.356;6.816;2022-09-09T09:31:23;17.70;99.90
3921;DHT22;1975;49.356;6.816;2022-09-09T09:33:55;17.80;99.90
3921;DHT22;1975;49.356;6.816;2022-09-09T09:36:23;17.80;99.90
3921;DHT22;1975;49.356;6.816;2022-09-09T09:38:56;17.90;99.90
3921;DHT22;1975;49.356;6.816;2022-09-09T09:41:35;17.90;99.90
3921;DHT22;1975;49.356;6.816;2022-09-09T09:44:01;18.00;99.90
3921;DHT22;1975;49.356;6.816;2022-09-09T09:46:27;18.10;99.90
3921;DHT22;1975;49.356;6.816;2022-09-09T09:48:56;18.20;99.90
3921;DHT22;1975;49.356;6.816;2022-09-09T09:51:22;18.30;99.90
3921;DHT22;1975;49.356;6.816;2022-09-09T09:53:48;18.30;99.90
3921;DHT22;1975;49.356;6.816;2022-09-09T09:56:14;18.30;99.90
3921;DHT22;1975;49.356;6.816;2022-09-09T10:04:17;17.80;99.90
3921;DHT22;1975;49.356;6.816;2022-09-09T10:06:45;17.40;99.90
3921;DHT22;1975;49.356;6.816;2022-09-09T10:09:21;17.10;99.90
3921;DHT22;1975;49.356;6.816;2022-09-09T10:14:19;16.90;99.90
3921;DHT22;1975;49.356;6.816;2022-09-09T10:26:49;16.80;99.90
3921;DHT22;1975;49.356;6.816;2022-09-09T10:36:50;17.20;99.90
3921;DHT22;1975;49.356;6.816;2022-09-09T10:42:03;17.30;99.90
3921;DHT22;1975;49.356;6.816;2022-09-09T10:52:27;17.60;99.90
3921;DHT22;1975;49.356;6.816;2022-09-09T10:57:33;17.70;99.90
3921;DHT22;1975;49.356;6.816;2022-09-09T11:00:06;17.70;99.90
3921;DHT22;1975;49.356;6.816;2022-09-09T11:02:33;17.70;99.90
3921;DHT22;1975;49.356;6.816;2022-09-09T11:07:33;17.80;99.90
3921;DHT22;1975;49.356;6.816;2022-09-09T11:10:01;17.80;99.90
3921;DHT22;1975;49.356;6.816;2022-09-09T11:12:28;17.80;99.90
3921;DHT22;1975;49.356;6.816;2022-09-09T11:15:14;17.90;99.90
3921;DHT22;1975;49.356;6.816;2022-09-09T11:17:43;17.90;99.90
3921;DHT22;1975;49.356;6.816;2022-09-09T11:20:13;17.90;99.90
3921;DHT22;1975;49.356;6.816;2022-09-09T11:25:17;18.00;99.90
3921;DHT22;1975;49.356;6.816;2022-09-09T11:30:19;18.00;99.90
3921;DHT22;1975;49.356;6.816;2022-09-09T11:38:32;18.10;99.90
3921;DHT22;1975;49.356;6.816;2022-09-09T11:41:01;18.10;99.90
3921;DHT22;1975;49.356;6.816;2022-09-09T11:43:29;18.10;99.90
3921;DHT22;1975;49.356;6.816;2022-09-09T11:45:56;18.10;99.90
3921;DHT22;1975;49.356;6.816;2022-09-09T11:48:29;18.10;99.90
3921;DHT22;1975;49.356;6.816;2022-09-09T11:51:38;18.10;99.90
3921;DHT22;1975;49.356;6.816;2022-09-09T11:53:49;18.20;99.90
3921;DHT22;1975;49.356;6.816;2022-09-09T11:56:24;18.20;99.90
3921;DHT22;1975;49.356;6.816;2022-09-09T11:58:54;18.20;99.90
3921;DHT22;1975;49.356;6.816;2022-09-09T12:01:27;18.20;99.90
3921;DHT22;1975;49.356;6.816;2022-09-09T12:06:31;18.20;99.90
3921;DHT22;1975;49.356;6.816;2022-09-09T12:08:58;18.20;99.90
3921;DHT22;1975;49.356;6.816;2022-09-09T12:11:31;18.20;99.90
3921;DHT22;1975;49.356;6.816;2022-09-09T12:14:00;18.20;99.90
3921;DHT22;1975;49.356;6.816;2022-09-09T12:16:37;18.20;99.90
3921;DHT22;1975;49.356;6.816;2022-09-09T12:24:24;18.30;99.90
3921;DHT22;1975;49.356;6.816;2022-09-09T12:27:40;18.30;99.90
3921;DHT22;1975;49.356;6.816;2022-09-09T12:32:11;18.30;99.90
3921;DHT22;1975;49.356;6.816;2022-09-09T12:35:20;18.30;99.90
3921;DHT22;1975;49.356;6.816;2022-09-09T12:37:40;18.30;99.90
3921;DHT22;1975;49.356;6.816;2022-09-09T12:40:21;18.30;99.90
3921;DHT22;1975;49.356;6.816;2022-09-09T12:42:47;18.30;99.90
3921;DHT22;1975;49.356;6.816;2022-09-09T12:45:19;18.30;99.90
3921;DHT22;1975;49.356;6.816;2022-09-09T12:50:18;18.30;99.90
3921;DHT22;1975;49.356;6.816;2022-09-09T12:52:44;18.30;99.90
3921;DHT22;1975;49.356;6.816;2022-09-09T12:55:21;18.30;99.90
3921;DHT22;1975;49.356;6.816;2022-09-09T12:57:47;18.30;99.90
3921;DHT22;1975;49.356;6.816;2022-09-09T13:00:19;18.40;99.90
3921;DHT22;1975;49.356;6.816;2022-09-09T13:02:50;18.30;99.90
3921;DHT22;1975;49.356;6.816;2022-09-09T13:07:45;18.40;99.90
3921;DHT22;1975;49.356;6.816;2022-09-09T13:10:11;18.40;99.90
3921;DHT22;1975;49.356;6.816;2022-09-09T13:12:37;18.40;99.90
3921;DHT22;1975;49.356;6.816;2022-09-09T13:15:03;18.40;99.90
3921;DHT22;1975;49.356;6.816;2022-09-09T13:17:28;18.40;99.90
3921;DHT22;1975;49.356;6.816;2022-09-09T13:19:54;18.40;99.90
3921;DHT22;1975;49.356;6.816;2022-09-09T13:22:30;18.40;99.90
3921;DHT22;1975;49.356;6.816;2022-09-09T13:24:58;18.40;99.90
3921;DHT22;1975;49.356;6.816;2022-09-09T13:27:34;18.50;99.90
3921;DHT22;1975;49.356;6.816;2022-09-09T13:30:00;18.50;99.90
3921;DHT22;1975;49.356;6.816;2022-09-09T13:32:28;18.40;99.90
3921;DHT22;1975;49.356;6.816;2022-09-09T13:34:57;18.50;99.90
3921;DHT22;1975;49.356;6.816;2022-09-09T13:37:25;18.50;99.90
3921;DHT22;1975;49.356;6.816;2022-09-09T13:39:53;18.50;99.90
3921;DHT22;1975;49.356;6.816;2022-09-09T13:42:22;18.50;99.90
3921;DHT22;1975;49.356;6.816;2022-09-09T13:44:50;18.50;99.90
3921;DHT22;1975;49.356;6.816;2022-09-09T13:47:19;18.50;99.90
3921;DHT22;1975;49.356;6.816;2022-09-09T13:49:45;18.50;99.90
3921;DHT22;1975;49.356;6.816;2022-09-09T13:52:12;18.60;99.90
3921;DHT22;1975;49.356;6.816;2022-09-09T13:54:39;18.60;99.90
3921;DHT22;1975;49.356;6.816;2022-09-09T13:57:05;18.60;99.90
3921;DHT22;1975;49.356;6.816;2022-09-09T13:59:30;18.60;99.90
3921;DHT22;1975;49.356;6.816;2022-09-09T14:01:57;18.60;99.90
3921;DHT22;1975;49.356;6.816;2022-09-09T14:04:23;18.60;99.90
3921;DHT22;1975;49.356;6.816;2022-09-09T14:06:49;18.60;99.90
3921;DHT22;1975;49.356;6.816;2022-09-09T14:09:15;18.60;99.90
3921;DHT22;1975;49.356;6.816;2022-09-09T14:11:41;18.60;99.90
3921;DHT22;1975;49.356;6.816;2022-09-09T14:14:08;18.60;99.90
3921;DHT22;1975;49.356;6.816;2022-09-09T14:16:34;18.60;99.90
3921;DHT22;1975;49.356;6.816;2022-09-09T14:18:59;18.70;99.90
3921;DHT22;1975;49.356;6.816;2022-09-09T14:21:25;18.60;99.90
3921;DHT22;1975;49.356;6.816;2022-09-09T14:23:51;18.70;99.90
3921;DHT22;1975;49.356;6.816;2022-09-09T14:26:18;18.70;99.90
3921;DHT22;1975;49.356;6.816;2022-09-09T14:28:44;18.70;99.90
3921;DHT22;1975;49.356;6.816;2022-09-09T14:31:10;18.70;99.90
3921;DHT22;1975;49.356;6.816;2022-09-09T14:33:35;18.70;99.90
3921;DHT22;1975;49.356;6.816;2022-09-09T14:36:02;18.70;99.90
3921;DHT22;1975;49.356;6.816;2022-09-09T14:38:29;18.70;99.90
3921;DHT22;1975;49.356;6.816;2022-09-09T14:40:54;18.70;99.90
3921;DHT22;1975;49.356;6.816;2022-09-09T14:43:21;18.70;99.90
3921;DHT22;1975;49.356;6.816;2022-09-09T14:45:46;18.70;99.90
3921;DHT22;1975;49.356;6.816;2022-09-09T14:48:13;18.70;99.90
3921;DHT22;1975;49.356;6.816;2022-09-09T14:50:40;18.80;99.90
3921;DHT22;1975;49.356;6.816;2022-09-09T14:53:06;18.80;99.90
3921;DHT22;1975;49.356;6.816;2022-09-09T14:55:32;18.80;99.90
3921;DHT22;1975;49.356;6.816;2022-09-09T14:57:57;18.80;99.90
3921;DHT22;1975;49.356;6.816;2022-09-09T15:00:23;18.80;99.90
3921;DHT22;1975;49.356;6.816;2022-09-09T15:02:52;18.80;99.90
3921;DHT22;1975;49.356;6.816;2022-09-09T15:05:17;18.80;99.90
3921;DHT22;1975;49.356;6.816;2022-09-09T15:07:42;18.80;99.90
3921;DHT22;1975;49.356;6.816;2022-09-09T15:10:08;18.80;99.90
3921;DHT22;1975;49.356;6.816;2022-09-09T15:12:34;18.80;99.90
3921;DHT22;1975;49.356;6.816;2022-09-09T15:15:00;18.80;99.90
3921;DHT22;1975;49.356;6.816;2022-09-09T15:17:25;18.80;99.90
3921;DHT22;1975;49.356;6.816;2022-09-09T15:19:52;18.80;99.90
3921;DHT22;1975;49.356;6.816;2022-09-09T15:22:18;18.80;99.90
3921;DHT22;1975;49.356;6.816;2022-09-09T15:24:44;18.80;99.90
3921;DHT22;1975;49.356;6.816;2022-09-09T15:27:09;18.80;99.90
3921;DHT22;1975;49.356;6.816;2022-09-09T15:29:35;18.80;99.90
3921;DHT22;1975;49.356;6.816;2022-09-09T15:32:00;18.80;99.90
3921;DHT22;1975;49.356;6.816;2022-09-09T15:34:26;18.80;99.90
3921;DHT22;1975;49.356;6.816;2022-09-09T15:36:51;18.80;99.90
3921;DHT22;1975;49.356;6.816;2022-09-09T15:39:17;18.80;99.90
3921;DHT22;1975;49.356;6.816;2022-09-09T15:41:43;18.80;99.90
3921;DHT22;1975;49.356;6.816;2022-09-09T15:44:09;18.80;99.90
3921;DHT22;1975;49.356;6.816;2022-09-09T15:49:11;18.80;99.90
3921;DHT22;1975;49.356;6.816;2022-09-09T15:51:41;18.80;99.90
3921;DHT22;1975;49.356;6.816;2022-09-09T15:54:07;18.80;99.90
3921;DHT22;1975;49.356;6.816;2022-09-09T15:56:33;18.80;99.90
3921;DHT22;1975;49.356;6.816;2022-09-09T15:59:00;18.80;99.90
3921;DHT22;1975;49.356;6.816;2022-09-09T16:01:26;18.80;99.90
3921;DHT22;1975;49.356;6.816;2022-09-09T16:03:52;18.80;99.90
3921;DHT22;1975;49.356;6.816;2022-09-09T16:06:19;18.80;99.90
3921;DHT22;1975;49.356;6.816;2022-09-09T16:08:47;18.80;99.90
3921;DHT22;1975;49.356;6.816;2022-09-09T16:11:16;18.80;99.90
3921;DHT22;1975;49.356;6.816;2022-09-09T16:13:42;18.80;99.90
3921;DHT22;1975;49.356;6.816;2022-09-09T16:16:09;18.80;99.90
3921;DHT22;1975;49.356;6.816;2022-09-09T16:18:39;18.80;99.90
3921;DHT22;1975;49.356;6.816;2022-09-09T16:21:05;18.80;99.90
3921;DHT22;1975;49.356;6.816;2022-09-09T16:23:33;18.80;99.90
3921;DHT22;1975;49.356;6.816;2022-09-09T16:25:59;18.80;99.90
3921;DHT22;1975;49.356;6.816;2022-09-09T16:28:24;18.90;99.90
3921;DHT22;1975;49.356;6.816;2022-09-09T16:30:50;18.80;99.90
3921;DHT22;1975;49.356;6.816;2022-09-09T16:33:16;18.90;99.90
3921;DHT22;1975;49.356;6.816;2022-09-09T16:35:41;18.90;99.90
3921;DHT22;1975;49.356;6.816;2022-09-09T16:38:07;18.90;99.90
3921;DHT22;1975;49.356;6.816;2022-09-09T16:40:35;18.90;99.90
3921;DHT22;1975;49.356;6.816;2022-09-09T16:43:02;18.90;99.90
3921;DHT22;1975;49.356;6.816;2022-09-09T16:45:27;18.90;99.90
3921;DHT22;1975;49.356;6.816;2022-09-09T16:47:53;18.90;99.90
3921;DHT22;1975;49.356;6.816;2022-09-09T16:50:19;18.90;99.90
3921;DHT22;1975;49.356;6.816;2022-09-09T16:52:44;18.90;99.90
3921;DHT22;1975;49.356;6.816;2022-09-09T16:55:10;18.90;99.90
3921;DHT22;1975;49.356;6.816;2022-09-09T16:57:35;18.90;99.90
3921;DHT22;1975;49.356;6.816;2022-09-09T17:00:01;18.90;99.90
3921;DHT22;1975;49.356;6.816;2022-09-09T17:02:29;18.90;99.90
3921;DHT22;1975;49.356;6.816;2022-09-09T17:04:55;18.90;99.90
3921;DHT22;1975;49.356;6.816;2022-09-09T17:07:20;18.90;99.90
3921;DHT22;1975;49.356;6.816;2022-09-09T17:09:46;18.90;99.90
3921;DHT22;1975;49.356;6.816;2022-09-09T17:12:11;18.90;99.90
3921;DHT22;1975;49.356;6.816;2022-09-09T17:14:37;18.90;99.90
3921;DHT22;1975;49.356;6.816;2022-09-09T17:17:03;18.90;99.90
3921;DHT22;1975;49.356;6.816;2022-09-09T17:19:30;18.90;99.90
3921;DHT22;1975;49.356;6.816;2022-09-09T17:21:55;18.90;99.90
3921;DHT22;1975;49.356;6.816;2022-09-09T17:24:22;18.90;99.90
3921;DHT22;1975;49.356;6.816;2022-09-09T17:26:48;18.90;99.90
3921;DHT22;1975;49.356;6.816;2022-09-09T17:29:13;18.90;99.90
3921;DHT22;1975;49.356;6.816;2022-09-09T17:31:39;18.90;99.90
3921;DHT22;1975;49.356;6.816;2022-09-09T17:34:05;18.90;99.90
3921;DHT22;1975;49.356;6.816;2022-09-09T17:36:33;18.90;99.90
3921;DHT22;1975;49.356;6.816;2022-09-09T17:38:59;18.90;99.90
3921;DHT22;1975;49.356;6.816;2022-09-09T17:41:26;18.90;99.90
3921;DHT22;1975;49.356;6.816;2022-09-09T17:43:53;18.90;99.90
3921;DHT22;1975;49.356;6.816;2022-09-09T17:46:20;18.90;99.90
3921;DHT22;1975;49.356;6.816;2022-09-09T17:48:46;18.90;99.90
3921;DHT22;1975;49.356;6.816;2022-09-09T17:51:13;18.90;99.90
3921;DHT22;1975;49.356;6.816;2022-09-09T17:53:40;18.90;99.90
3921;DHT22;1975;49.356;6.816;2022-09-09T17:56:07;18.90;99.90
3921;DHT22;1975;49.356;6.816;2022-09-09T17:58:33;18.90;99.90
3921;DHT22;1975;49.356;6.816;2022-09-09T18:01:03;18.90;99.90
3921;DHT22;1975;49.356;6.816;2022-09-09T18:03:30;18.90;99.90